Time;durP1;ratioP1;P1;durP2;ratioP2;P2;SDS_P1;SDS_P2;PMS_P1;PMS_P2;Temp;Humidity;BMP_temperature;BMP_pressure;BME280_temperature;BME280_humidity;BME280_pressure;Samples;Min_cycle;Max_cycle;Signal;HPM_P1;HPM_P2
2021/05/09 00:00:19;;;;;;;5.70;3.00;;;8.00;98.80;;;;;;5000290;28;20191;-58
2021/05/09 00:02:45;;;;;;;4.20;3.33;;;8.00;98.80;;;;;;5001291;28;20192;-57
2021/05/09 00:05:11;;;;;;;5.17;3.30;;;8.00;98.80;;;;;;4997710;28;20454;-57
2021/05/09 00:07:37;;;;;;;4.80;3.20;;;8.00;99.20;;;;;;4998050;28;20212;-54
2021/05/09 00:10:05;;;;;;;4.13;3.73;;;8.00;99.00;;;;;;5005491;28;20518;-57
2021/05/09 00:12:31;;;;;;;3.30;3.00;;;7.90;99.00;;;;;;5007692;28;20444;-55
2021/05/09 00:14:57;;;;;;;5.27;3.20;;;7.90;99.10;;;;;;5009015;28;20439;-59
2021/05/09 00:17:22;;;;;;;4.00;3.10;;;7.80;99.20;;;;;;4991870;28;20225;-55
2021/05/09 00:19:48;;;;;;;3.57;3.10;;;7.80;99.30;;;;;;5009146;28;20195;-54
2021/05/09 00:22:13;;;;;;;4.17;3.07;;;7.80;99.40;;;;;;5007862;28;20188;-58
2021/05/09 00:24:39;;;;;;;3.43;2.90;;;7.80;99.40;;;;;;5004752;28;20192;-55
2021/05/09 00:27:05;;;;;;;3.40;2.80;;;7.80;99.40;;;;;;5007730;28;20209;-55
2021/05/09 00:29:30;;;;;;;4.03;3.30;;;7.80;99.40;;;;;;5009520;28;20310;-55
2021/05/09 00:31:56;;;;;;;4.93;3.00;;;7.70;99.30;;;;;;5007277;28;20592;-56
2021/05/09 00:34:22;;;;;;;3.47;3.07;;;7.70;99.40;;;;;;5006841;28;20180;-56
2021/05/09 00:36:47;;;;;;;7.83;3.27;;;7.70;99.50;;;;;;5002898;28;20215;-57
2021/05/09 00:39:13;;;;;;;3.70;3.20;;;7.60;99.50;;;;;;5010184;28;20184;-56
2021/05/09 00:41:38;;;;;;;4.77;3.33;;;7.60;99.60;;;;;;5000462;28;20176;-55
2021/05/09 00:44:04;;;;;;;4.30;2.83;;;7.60;99.70;;;;;;5006348;28;20180;-55
2021/05/09 00:46:30;;;;;;;3.93;2.80;;;7.50;99.80;;;;;;5009142;28;20255;-54
2021/05/09 00:48:57;;;;;;;4.13;3.23;;;7.50;99.90;;;;;;5007059;28;20787;-56
2021/05/09 00:51:22;;;;;;;3.83;2.73;;;7.50;99.90;;;;;;5010037;28;20180;-57
2021/05/09 00:53:50;;;;;;;10.00;3.30;;;7.50;99.90;;;;;;5008784;28;20445;-56
2021/05/09 00:56:18;;;;;;;6.50;3.50;;;7.50;99.90;;;;;;5007507;28;20677;-57
2021/05/09 00:58:47;;;;;;;4.73;3.10;;;7.50;99.90;;;;;;5005677;28;20440;-53
2021/05/09 01:01:13;;;;;;;3.23;2.83;;;7.40;99.90;;;;;;5004760;28;20917;-56
2021/05/09 01:03:42;;;;;;;3.37;2.93;;;7.50;99.90;;;;;;5009627;28;20432;-55
2021/05/09 01:06:09;;;;;;;11.83;3.13;;;7.40;99.90;;;;;;5008022;28;20444;-57
2021/05/09 01:08:35;;;;;;;4.30;2.73;;;7.40;99.90;;;;;;5006887;28;20820;-58
2021/05/09 01:11:05;;;;;;;8.20;3.00;;;7.40;99.90;;;;;;5007787;28;20447;-55
2021/05/09 01:13:32;;;;;;;3.50;3.03;;;7.40;99.90;;;;;;5004134;28;20431;-54
2021/05/09 01:16:00;;;;;;;3.53;3.03;;;7.30;99.90;;;;;;5004321;28;20858;-55
2021/05/09 01:18:26;;;;;;;6.27;3.13;;;7.30;99.90;;;;;;4999789;28;20443;-55
2021/05/09 01:20:52;;;;;;;3.13;2.80;;;7.30;99.90;;;;;;5007076;28;20423;-59
2021/05/09 01:23:18;;;;;;;2.77;2.53;;;7.20;99.90;;;;;;5006341;28;20883;-55
2021/05/09 01:25:43;;;;;;;2.50;2.30;;;7.20;99.90;;;;;;5008413;28;20265;-55
2021/05/09 01:28:09;;;;;;;5.13;3.10;;;7.20;99.90;;;;;;5005775;28;20176;-54
2021/05/09 01:30:35;;;;;;;10.90;3.33;;;7.20;99.90;;;;;;5010364;28;20314;-56
2021/05/09 01:33:02;;;;;;;3.57;2.60;;;7.10;99.90;;;;;;5010761;28;20193;-55
2021/05/09 01:35:28;;;;;;;5.13;3.40;;;7.10;99.90;;;;;;5006582;28;20446;-57
2021/05/09 01:37:53;;;;;;;5.20;3.20;;;7.10;99.90;;;;;;5006005;28;20475;-54
2021/05/09 01:40:19;;;;;;;3.87;2.73;;;7.10;99.90;;;;;;5007780;28;20172;-55
2021/05/09 01:42:45;;;;;;;4.70;2.87;;;7.10;99.90;;;;;;5004997;28;20785;-56
2021/05/09 01:45:11;;;;;;;4.60;2.60;;;7.00;99.90;;;;;;5005601;28;20173;-57
2021/05/09 01:47:37;;;;;;;4.50;2.80;;;7.00;99.90;;;;;;4999250;28;20211;-55
2021/05/09 01:50:23;;;;;;;5.90;3.20;;;7.00;99.90;;;;;;5003624;28;20510;-56
2021/05/09 01:52:48;;;;;;;2.80;2.60;;;6.90;99.90;;;;;;5003031;28;20467;-57
2021/05/09 01:55:18;;;;;;;6.27;3.10;;;6.90;99.90;;;;;;4998646;28;20482;-55
2021/05/09 01:57:44;;;;;;;4.20;2.83;;;6.90;99.90;;;;;;5001764;28;20220;-59
2021/05/09 02:00:16;;;;;;;4.63;2.83;;;6.90;99.90;;;;;;5003759;28;20435;-54
2021/05/09 02:02:42;;;;;;;4.60;3.20;;;6.80;99.90;;;;;;5007473;28;20446;-56
2021/05/09 02:05:08;;;;;;;5.07;2.80;;;6.80;99.90;;;;;;5003578;28;20911;-56
2021/05/09 02:07:34;;;;;;;4.27;2.57;;;6.80;99.90;;;;;;5006092;28;20830;-57
2021/05/09 02:10:00;;;;;;;3.43;2.60;;;6.70;99.90;;;;;;5006836;28;20949;-58
2021/05/09 02:12:26;;;;;;;4.87;2.77;;;6.70;99.90;;;;;;5007257;28;20431;-53
2021/05/09 02:14:53;;;;;;;4.17;2.97;;;6.70;99.90;;;;;;5004817;28;20443;-54
2021/05/09 02:17:19;;;;;;;3.03;2.67;;;6.70;99.90;;;;;;5001017;28;20493;-55
2021/05/09 02:19:47;;;;;;;3.33;2.50;;;6.70;99.90;;;;;;5008702;28;20403;-54
2021/05/09 02:22:14;;;;;;;4.10;3.10;;;6.70;99.90;;;;;;5007460;28;20493;-53
2021/05/09 02:24:40;;;;;;;4.57;2.80;;;6.70;99.90;;;;;;5007249;28;20522;-54
2021/05/09 02:27:06;;;;;;;3.00;2.70;;;6.70;99.90;;;;;;5004772;28;20939;-55
2021/05/09 02:29:32;;;;;;;3.10;2.50;;;6.70;99.90;;;;;;5006235;28;20439;-57
2021/05/09 02:31:57;;;;;;;3.23;2.83;;;6.60;99.90;;;;;;5006225;28;20618;-55
2021/05/09 02:34:23;;;;;;;4.13;2.80;;;6.60;99.90;;;;;;5004928;28;20212;-55
2021/05/09 02:36:49;;;;;;;3.90;2.43;;;6.60;99.90;;;;;;5001853;28;20200;-56
2021/05/09 02:39:15;;;;;;;3.90;2.53;;;6.60;99.90;;;;;;5007079;28;20184;-59
2021/05/09 02:41:41;;;;;;;5.00;3.00;;;6.50;99.90;;;;;;5006793;28;20215;-57
2021/05/09 02:44:08;;;;;;;5.97;2.70;;;6.50;99.90;;;;;;5003161;28;20439;-56
2021/05/09 02:46:34;;;;;;;3.20;2.83;;;6.50;99.90;;;;;;4999330;28;20909;-57
2021/05/09 02:48:59;;;;;;;3.30;2.73;;;6.50;99.90;;;;;;5006041;28;20458;-54
2021/05/09 02:51:25;;;;;;;3.53;2.53;;;6.50;99.90;;;;;;5007653;28;20697;-57
2021/05/09 02:53:51;;;;;;;3.80;2.80;;;6.50;99.90;;;;;;5006928;28;20586;-55
2021/05/09 02:56:18;;;;;;;3.97;2.87;;;6.50;99.90;;;;;;5003897;28;20497;-56
2021/05/09 02:58:44;;;;;;;6.00;2.83;;;6.40;99.90;;;;;;5006470;28;20458;-56
2021/05/09 03:01:10;;;;;;;4.70;2.70;;;6.40;99.90;;;;;;5007323;28;20522;-57
2021/05/09 03:03:35;;;;;;;3.73;3.10;;;6.40;99.90;;;;;;5006262;28;20699;-56
2021/05/09 03:06:01;;;;;;;2.93;2.70;;;6.40;99.90;;;;;;5009005;28;20548;-55
2021/05/09 03:08:26;;;;;;;3.20;2.90;;;6.40;99.90;;;;;;5010220;28;20234;-56
2021/05/09 03:10:52;;;;;;;4.30;2.90;;;6.40;99.90;;;;;;5003578;28;20193;-54
2021/05/09 03:13:18;;;;;;;4.23;2.83;;;6.30;99.90;;;;;;5001751;28;20180;-57
2021/05/09 03:15:44;;;;;;;4.13;2.73;;;6.30;99.90;;;;;;5005871;28;20689;-57
2021/05/09 03:18:09;;;;;;;3.13;2.80;;;6.30;99.90;;;;;;5005506;28;20914;-55
2021/05/09 03:20:36;;;;;;;3.10;2.77;;;6.30;99.90;;;;;;5009803;28;20180;-55
2021/05/09 03:23:03;;;;;;;3.63;2.63;;;6.30;99.90;;;;;;5007529;28;20237;-58
2021/05/09 03:25:29;;;;;;;3.50;2.53;;;6.20;99.90;;;;;;5005006;28;21094;-56
2021/05/09 03:27:55;;;;;;;3.57;2.90;;;6.20;99.90;;;;;;5007817;28;20420;-54
2021/05/09 03:30:20;;;;;;;3.20;2.87;;;6.20;99.90;;;;;;5004691;28;20503;-56
2021/05/09 03:32:46;;;;;;;7.00;3.13;;;6.10;99.90;;;;;;5009617;28;20711;-55
2021/05/09 03:35:12;;;;;;;3.07;2.77;;;6.10;99.90;;;;;;5008116;28;20172;-56
2021/05/09 03:37:37;;;;;;;4.53;3.10;;;6.10;99.90;;;;;;5013248;28;20350;-54
2021/05/09 03:40:05;;;;;;;3.40;3.00;;;6.10;99.90;;;;;;5009806;28;20183;-55
2021/05/09 03:42:31;;;;;;;3.10;2.90;;;6.00;99.90;;;;;;4994509;28;20176;-56
2021/05/09 03:44:57;;;;;;;3.60;2.97;;;6.00;99.90;;;;;;5007122;28;20434;-58
2021/05/09 03:47:26;;;;;;;2.83;2.50;;;6.00;99.90;;;;;;5009600;28;20703;-58
2021/05/09 03:49:56;;;;;;;3.17;2.87;;;6.00;99.90;;;;;;5008823;28;20641;-55
2021/05/09 03:52:22;;;;;;;4.20;2.80;;;5.90;99.90;;;;;;4999781;28;20819;-57
2021/05/09 03:54:47;;;;;;;2.90;2.53;;;6.00;99.90;;;;;;5010097;28;20554;-56
2021/05/09 03:57:13;;;;;;;3.77;2.73;;;6.00;99.90;;;;;;5030660;22;20498;-55
2021/05/09 03:59:40;;;;;;;3.27;2.97;;;6.00;99.90;;;;;;5028894;28;20176;-58
2021/05/09 04:02:06;;;;;;;6.27;3.27;;;6.00;99.90;;;;;;5019677;28;20287;-58
2021/05/09 04:04:31;;;;;;;3.40;3.10;;;5.90;99.90;;;;;;5023335;28;20529;-58
2021/05/09 04:06:57;;;;;;;3.10;2.80;;;5.90;99.90;;;;;;5025360;28;20532;-58
2021/05/09 04:09:23;;;;;;;3.43;2.80;;;5.90;99.90;;;;;;5027324;28;20199;-57
2021/05/09 04:11:48;;;;;;;2.90;2.70;;;5.90;99.90;;;;;;5026086;28;20544;-58
2021/05/09 04:14:14;;;;;;;3.90;3.03;;;5.90;99.90;;;;;;5025668;28;20172;-57
2021/05/09 04:16:40;;;;;;;3.47;3.17;;;5.80;99.90;;;;;;5021471;28;20688;-57
2021/05/09 04:19:05;;;;;;;3.53;3.13;;;5.80;99.90;;;;;;5024678;28;20251;-57
2021/05/09 04:21:31;;;;;;;4.00;3.07;;;5.80;99.90;;;;;;5024335;28;20175;-56
2021/05/09 04:23:57;;;;;;;7.83;2.90;;;5.80;99.90;;;;;;5020620;28;20187;-59
2021/05/09 04:26:22;;;;;;;3.20;2.90;;;5.80;99.90;;;;;;5027848;28;20200;-57
2021/05/09 04:28:49;;;;;;;7.13;3.10;;;5.80;99.90;;;;;;5024497;28;20186;-58
2021/05/09 04:31:14;;;;;;;3.20;2.90;;;5.90;99.90;;;;;;5024507;28;20684;-56
2021/05/09 04:33:40;;;;;;;9.20;3.30;;;5.90;99.90;;;;;;5024982;28;20462;-58
2021/05/09 04:36:06;;;;;;;4.30;3.20;;;5.90;99.90;;;;;;5025454;28;20183;-58
2021/05/09 04:38:32;;;;;;;3.27;2.70;;;6.00;99.90;;;;;;5023894;28;20592;-57
2021/05/09 04:40:58;;;;;;;2.93;2.57;;;6.00;99.90;;;;;;5026516;28;20427;-58
2021/05/09 04:43:23;;;;;;;3.93;3.17;;;6.10;99.90;;;;;;5016810;28;20180;-58
2021/05/09 04:45:53;;;;;;;2.97;2.67;;;6.10;99.90;;;;;;5019980;28;20430;-58
2021/05/09 04:48:20;;;;;;;4.00;3.10;;;6.20;99.90;;;;;;5016598;28;20297;-58
2021/05/09 04:50:46;;;;;;;3.33;3.03;;;6.20;99.90;;;;;;5017008;28;21072;-59
2021/05/09 04:53:33;;;;;;;5.00;3.37;;;6.30;99.90;;;;;;5015061;28;20872;-56
2021/05/09 04:56:01;;;;;;;7.70;3.50;;;6.40;99.90;;;;;;5019683;28;20935;-57
2021/05/09 04:58:27;;;;;;;6.00;3.37;;;6.50;99.90;;;;;;5019061;28;20463;-56
2021/05/09 05:00:55;;;;;;;4.00;3.20;;;6.60;99.90;;;;;;5017151;28;20497;-57
2021/05/09 05:03:21;;;;;;;4.00;3.60;;;6.70;99.90;;;;;;5028623;28;20429;-57
2021/05/09 05:05:47;;;;;;;4.00;3.60;;;6.70;99.90;;;;;;5023278;28;20438;-57
2021/05/09 05:08:12;;;;;;;5.67;3.63;;;6.80;99.90;;;;;;5024668;28;20472;-58
2021/05/09 05:10:38;;;;;;;5.40;3.43;;;6.90;99.90;;;;;;5027141;28;20184;-57
2021/05/09 05:13:21;;;;;;;3.43;3.10;;;7.00;99.90;;;;;;5023407;28;20704;-57
2021/05/09 05:15:48;;;;;;;3.83;3.50;;;7.10;99.90;;;;;;5019092;28;20683;-57
2021/05/09 05:18:14;;;;;;;3.50;3.00;;;7.10;99.90;;;;;;5018958;28;20458;-56
2021/05/09 05:20:41;;;;;;;3.30;3.00;;;7.20;99.90;;;;;;5022937;28;20437;-59
2021/05/09 05:23:06;;;;;;;8.83;3.20;;;7.30;99.90;;;;;;5021041;28;20441;-57
2021/05/09 05:25:32;;;;;;;2.70;2.50;;;7.40;99.90;;;;;;5018343;28;20431;-57
2021/05/09 05:28:00;;;;;;;5.30;2.83;;;7.50;99.90;;;;;;5026507;28;20278;-57
2021/05/09 05:30:26;;;;;;;2.87;2.67;;;7.60;99.90;;;;;;5014560;28;20220;-61
2021/05/09 05:32:51;;;;;;;3.30;3.00;;;7.70;99.90;;;;;;5024911;28;20423;-58
2021/05/09 05:35:19;;;;;;;4.23;3.60;;;7.80;99.90;;;;;;5023464;28;20769;-60
2021/05/09 05:37:45;;;;;;;3.07;2.83;;;7.90;99.90;;;;;;5018126;28;20727;-57
2021/05/09 05:40:11;;;;;;;3.63;2.97;;;8.00;99.90;;;;;;5020215;28;20547;-57
2021/05/09 05:42:39;;;;;;;3.93;3.53;;;8.10;99.90;;;;;;5021469;28;20179;-57
2021/05/09 05:45:06;;;;;;;3.03;2.80;;;8.20;99.90;;;;;;5018846;28;20436;-56
2021/05/09 05:47:32;;;;;;;3.13;2.70;;;8.30;99.90;;;;;;5010362;28;20771;-58
2021/05/09 05:49:58;;;;;;;3.13;2.70;;;8.40;99.90;;;;;;5016011;28;20431;-57
2021/05/09 05:52:24;;;;;;;3.80;2.80;;;8.50;99.60;;;;;;5018013;28;20238;-58
2021/05/09 05:54:49;;;;;;;2.73;2.53;;;8.60;99.40;;;;;;5020061;28;20443;-57
2021/05/09 05:57:15;;;;;;;2.60;2.40;;;8.70;99.20;;;;;;5021650;28;20265;-58
2021/05/09 05:59:41;;;;;;;2.87;2.43;;;8.80;99.30;;;;;;5024684;28;20167;-57
2021/05/09 06:02:06;;;;;;;3.83;2.53;;;8.90;99.00;;;;;;5021353;28;20187;-57
2021/05/09 06:04:32;;;;;;;3.90;3.00;;;9.00;99.30;;;;;;5019381;28;20187;-57
2021/05/09 06:06:58;;;;;;;2.60;2.40;;;9.30;99.30;;;;;;5021480;28;20207;-57
2021/05/09 06:09:23;;;;;;;2.90;2.70;;;10.00;98.30;;;;;;5020347;28;20186;-57
2021/05/09 06:11:49;;;;;;;7.10;2.93;;;10.40;96.30;;;;;;5024626;28;20180;-59
2021/05/09 06:14:15;;;;;;;3.43;2.57;;;10.50;95.20;;;;;;5021097;28;20550;-58
2021/05/09 06:16:40;;;;;;;3.83;2.50;;;10.60;94.40;;;;;;5021260;28;20226;-57
2021/05/09 06:19:06;;;;;;;2.80;2.50;;;10.50;94.40;;;;;;5019093;28;20203;-56
2021/05/09 06:21:32;;;;;;;3.10;2.63;;;10.50;94.70;;;;;;5018990;28;20254;-57
2021/05/09 06:23:57;;;;;;;3.20;2.80;;;10.60;95.10;;;;;;5020611;28;20325;-59
2021/05/09 06:26:23;;;;;;;6.80;2.53;;;10.60;95.30;;;;;;5018614;28;20900;-57
2021/05/09 06:28:49;;;;;;;3.17;2.73;;;10.60;95.50;;;;;;5013901;28;20171;-58
2021/05/09 06:31:15;;;;;;;3.20;2.90;;;10.70;95.20;;;;;;5013150;28;20341;-55
2021/05/09 06:33:40;;;;;;;2.83;2.30;;;10.80;95.60;;;;;;5015668;28;20255;-57
2021/05/09 06:36:06;;;;;;;3.87;2.20;;;10.90;95.80;;;;;;5012547;28;20479;-58
2021/05/09 06:38:32;;;;;;;2.47;2.23;;;11.00;95.40;;;;;;5019261;28;20243;-58
2021/05/09 06:40:58;;;;;;;4.20;2.70;;;11.10;95.10;;;;;;5019232;28;20211;-57
2021/05/09 06:43:24;;;;;;;2.83;2.00;;;11.20;95.20;;;;;;5023006;28;20895;-58
2021/05/09 06:45:50;;;;;;;4.23;2.40;;;11.30;94.80;;;;;;5019244;28;20180;-58
2021/05/09 06:48:16;;;;;;;3.17;2.70;;;11.40;93.70;;;;;;5015378;28;20219;-58
2021/05/09 06:50:41;;;;;;;2.80;2.60;;;11.50;93.70;;;;;;5021405;28;21123;-58
2021/05/09 06:53:07;;;;;;;6.70;2.37;;;11.60;93.80;;;;;;5023752;28;20175;-57
2021/05/09 06:55:36;;;;;;;3.20;2.60;;;11.70;93.80;;;;;;5025705;28;20524;-58
2021/05/09 06:58:03;;;;;;;4.57;3.00;;;11.80;93.70;;;;;;5018745;28;20462;-58
2021/05/09 07:00:29;;;;;;;4.33;2.50;;;12.00;94.10;;;;;;5014494;28;20441;-58
2021/05/09 07:02:54;;;;;;;2.30;2.10;;;12.10;93.80;;;;;;5014584;28;20430;-58
2021/05/09 07:05:20;;;;;;;2.90;2.67;;;12.20;93.60;;;;;;5019634;28;20176;-58
2021/05/09 07:07:51;;;;;;;4.50;2.90;;;12.30;93.50;;;;;;5027320;28;20633;-58
2021/05/09 07:10:18;;;;;;;3.37;2.40;;;12.40;92.90;;;;;;5029067;28;20195;-56
2021/05/09 07:12:44;;;;;;;2.40;2.20;;;12.50;92.70;;;;;;5026937;28;20977;-55
2021/05/09 07:15:11;;;;;;;4.70;2.80;;;12.70;92.50;;;;;;5015645;28;20529;-55
2021/05/09 07:17:38;;;;;;;2.60;2.40;;;12.80;92.50;;;;;;5019162;28;20466;-56
2021/05/09 07:20:07;;;;;;;2.73;2.40;;;12.90;92.20;;;;;;5025396;28;20437;-59
2021/05/09 07:22:41;;;;;;;2.43;2.23;;;13.10;92.50;;;;;;5026905;28;20438;-55
2021/05/09 07:25:08;;;;;;;2.50;2.30;;;13.20;92.90;;;;;;5021868;28;20434;-57
2021/05/09 07:27:33;;;;;;;3.63;2.63;;;13.40;93.30;;;;;;5027255;28;20529;-56
2021/05/09 07:29:59;;;;;;;3.70;2.57;;;13.60;92.90;;;;;;5030893;28;20434;-57
2021/05/09 07:32:24;;;;;;;3.97;2.80;;;13.80;92.10;;;;;;5024619;28;20297;-57
2021/05/09 07:34:50;;;;;;;4.43;2.60;;;13.90;91.80;;;;;;5025685;28;20184;-56
2021/05/09 07:37:17;;;;;;;2.80;2.60;;;13.90;90.70;;;;;;5024481;28;20212;-59
2021/05/09 07:39:42;;;;;;;4.30;2.90;;;14.00;90.20;;;;;;5025289;28;20177;-60
2021/05/09 07:42:08;;;;;;;2.77;2.57;;;14.10;90.10;;;;;;5027908;28;20428;-58
2021/05/09 07:44:34;;;;;;;4.50;2.50;;;14.30;90.10;;;;;;5024088;28;20173;-57
2021/05/09 07:46:59;;;;;;;4.03;2.90;;;14.50;90.00;;;;;;5017163;28;20204;-58
2021/05/09 07:49:25;;;;;;;7.70;2.83;;;14.60;89.00;;;;;;5021481;28;20214;-59
2021/05/09 07:51:51;;;;;;;3.70;2.60;;;14.80;87.10;;;;;;5019282;28;20180;-59
2021/05/09 07:54:16;;;;;;;2.30;2.10;;;14.80;86.10;;;;;;5020317;28;20180;-60
2021/05/09 07:56:42;;;;;;;2.13;1.93;;;15.00;83.60;;;;;;5017776;28;20214;-60
2021/05/09 07:59:08;;;;;;;2.30;2.10;;;15.10;80.60;;;;;;5022367;28;20256;-59
2021/05/09 08:01:33;;;;;;;3.20;2.60;;;15.20;80.30;;;;;;5020529;28;20214;-58
2021/05/09 08:03:59;;;;;;;3.63;2.20;;;15.40;82.50;;;;;;5013093;28;20240;-60
2021/05/09 08:06:24;;;;;;;3.83;2.43;;;15.60;84.00;;;;;;5020228;28;20278;-60
2021/05/09 08:08:50;;;;;;;3.80;2.53;;;15.90;85.50;;;;;;5021558;28;20180;-59
2021/05/09 08:11:16;;;;;;;2.37;2.17;;;16.00;84.90;;;;;;5026497;28;20585;-59
2021/05/09 08:13:41;;;;;;;2.37;2.10;;;16.20;82.40;;;;;;5016363;28;20768;-60
2021/05/09 08:16:07;;;;;;;2.40;2.20;;;16.40;78.30;;;;;;5024844;28;20255;-60
2021/05/09 08:18:33;;;;;;;4.97;1.77;;;16.60;72.80;;;;;;5022884;28;20204;-60
2021/05/09 08:21:01;;;;;;;1.67;1.40;;;16.70;70.60;;;;;;5022259;28;20832;-60
2021/05/09 08:23:28;;;;;;;2.83;1.87;;;16.90;68.70;;;;;;5021931;28;20533;-60
2021/05/09 08:25:54;;;;;;;1.93;1.57;;;17.10;67.60;;;;;;5023579;28;20465;-60
2021/05/09 08:28:20;;;;;;;4.00;1.60;;;17.20;66.00;;;;;;5023619;28;20443;-59
2021/05/09 08:30:46;;;;;;;5.20;2.07;;;17.40;63.60;;;;;;5020584;28;20434;-59
2021/05/09 08:33:12;;;;;;;4.90;2.50;;;17.50;60.20;;;;;;5022640;28;20383;-59
2021/05/09 08:35:37;;;;;;;1.73;1.33;;;17.60;60.10;;;;;;5022730;28;20200;-59
2021/05/09 08:38:04;;;;;;;4.93;2.07;;;17.80;57.30;;;;;;5018296;28;20203;-59
2021/05/09 08:40:31;;;;;;;1.60;1.50;;;17.80;52.80;;;;;;5020857;28;20263;-58
2021/05/09 08:42:58;;;;;;;1.60;1.50;;;18.00;52.60;;;;;;5021385;28;20423;-60
2021/05/09 08:45:23;;;;;;;1.57;1.30;;;18.10;53.50;;;;;;5019578;28;20473;-60
2021/05/09 08:47:50;;;;;;;1.57;1.47;;;18.30;54.40;;;;;;5019813;28;20454;-61
2021/05/09 08:50:19;;;;;;;1.60;1.50;;;18.50;54.10;;;;;;5023479;28;20182;-61
2021/05/09 08:52:48;;;;;;;2.23;1.40;;;18.60;53.30;;;;;;5016666;28;20814;-62
2021/05/09 08:55:16;;;;;;;1.30;1.20;;;18.70;53.60;;;;;;5012190;28;20438;-61
2021/05/09 08:57:43;;;;;;;1.80;1.40;;;18.90;54.10;;;;;;5020777;28;20470;-60
2021/05/09 09:00:13;;;;;;;6.07;1.40;;;19.10;53.60;;;;;;5020401;28;20517;-64
2021/05/09 09:02:40;;;;;;;2.83;1.63;;;19.30;53.50;;;;;;5017806;28;20422;-60
2021/05/09 09:05:07;;;;;;;1.30;1.20;;;19.40;52.20;;;;;;5017628;28;20430;-62
2021/05/09 09:07:46;;;;;;;1.27;1.17;;;19.50;50.50;;;;;;5019352;28;20458;-62
2021/05/09 09:10:29;;;;;;;4.07;1.50;;;19.50;50.10;;;;;;5024978;28;20434;-61
2021/05/09 09:12:55;;;;;;;2.50;1.17;;;19.70;50.70;;;;;;5025852;28;21988;-60
2021/05/09 09:15:20;;;;;;;1.57;1.47;;;19.80;49.20;;;;;;5015740;28;20557;-61
2021/05/09 09:17:46;;;;;;;2.87;1.70;;;20.00;49.40;;;;;;5016449;28;20611;-62
2021/05/09 09:20:18;;;;;;;2.90;1.30;;;20.20;48.50;;;;;;5020053;28;20244;-61
2021/05/09 09:22:50;;;;;;;1.30;1.20;;;20.40;48.00;;;;;;5022216;28;20267;-58
2021/05/09 09:25:19;;;;;;;1.23;1.13;;;20.70;48.10;;;;;;5008283;28;20513;-59
2021/05/09 09:27:47;;;;;;;1.07;1.03;;;20.90;47.90;;;;;;5013513;28;20470;-61
2021/05/09 09:30:15;;;;;;;1.40;1.30;;;21.20;42.60;;;;;;5009774;28;20441;-61
2021/05/09 09:32:41;;;;;;;6.03;1.60;;;21.30;40.80;;;;;;5011761;28;20474;-61
2021/05/09 09:35:27;;;;;;;1.60;1.50;;;21.50;40.80;;;;;;5013332;28;20967;-60
2021/05/09 09:37:53;;;;;;;1.40;0.97;;;21.60;39.80;;;;;;5011632;28;21041;-60
2021/05/09 09:40:18;;;;;;;0.97;0.97;;;21.80;40.00;;;;;;5015601;28;20614;-59
2021/05/09 09:42:46;;;;;;;1.30;1.20;;;21.90;40.10;;;;;;5019879;28;20187;-60
2021/05/09 09:45:22;;;;;;;2.27;1.40;;;22.10;39.70;;;;;;5015020;28;20594;-60
2021/05/09 09:47:55;;;;;;;1.80;1.20;;;22.40;39.60;;;;;;5014280;28;20464;-60
2021/05/09 09:50:43;;;;;;;3.73;1.00;;;22.50;38.10;;;;;;5015114;28;20450;-61
2021/05/09 09:53:24;;;;;;;1.70;1.10;;;22.60;39.20;;;;;;5016734;28;21036;-59
2021/05/09 09:56:09;;;;;;;2.83;1.40;;;22.70;39.30;;;;;;5014906;28;20441;-62
2021/05/09 09:58:56;;;;;;;2.87;1.20;;;22.70;38.60;;;;;;5016290;28;20501;-60
2021/05/09 10:01:29;;;;;;;3.00;1.27;;;22.90;39.10;;;;;;5009938;28;20441;-61
2021/05/09 10:04:03;;;;;;;2.93;1.30;;;23.00;37.60;;;;;;5016632;28;20477;-60
2021/05/09 10:06:29;;;;;;;3.17;1.27;;;23.10;38.70;;;;;;5014178;28;20516;-61
2021/05/09 10:08:58;;;;;;;1.30;1.20;;;23.20;38.40;;;;;;5015611;28;20427;-60
2021/05/09 10:11:24;;;;;;;1.33;1.23;;;23.20;37.80;;;;;;5011748;28;20422;-60
2021/05/09 10:13:52;;;;;;;2.10;1.10;;;23.20;38.70;;;;;;5014890;28;20446;-61
2021/05/09 10:16:40;;;;;;;2.80;1.70;;;23.20;38.70;;;;;;5008304;28;20480;-60
2021/05/09 10:19:12;;;;;;;1.50;1.40;;;23.30;38.30;;;;;;5011604;28;20500;-62
2021/05/09 10:21:42;;;;;;;1.27;1.00;;;23.40;39.40;;;;;;5013390;28;20446;-61
2021/05/09 10:24:21;;;;;;;3.00;2.10;;;23.50;39.40;;;;;;5015970;28;20446;-63
2021/05/09 10:26:57;;;;;;;2.03;1.30;;;23.60;38.60;;;;;;5008863;28;20560;-60
2021/05/09 10:29:48;;;;;;;2.27;1.40;;;23.80;38.10;;;;;;5014066;28;20447;-61
2021/05/09 10:32:20;;;;;;;5.37;1.30;;;23.90;39.10;;;;;;5009318;28;20839;-59
2021/05/09 10:34:57;;;;;;;2.37;1.27;;;23.90;38.40;;;;;;5013038;28;20543;-60
2021/05/09 10:37:35;;;;;;;1.90;1.50;;;24.10;37.20;;;;;;5016015;28;20830;-60
2021/05/09 10:40:22;;;;;;;1.67;1.20;;;24.10;36.40;;;;;;5016620;28;20541;-60
2021/05/09 10:43:09;;;;;;;3.00;1.40;;;24.20;36.90;;;;;;5016150;28;20430;-60
2021/05/09 10:45:40;;;;;;;1.27;1.17;;;24.30;36.20;;;;;;5013878;28;20427;-59
2021/05/09 10:48:22;;;;;;;4.23;1.80;;;24.30;36.50;;;;;;5009457;28;20513;-60
2021/05/09 10:50:50;;;;;;;1.93;1.20;;;24.40;36.90;;;;;;5006131;28;20430;-61
2021/05/09 10:53:33;;;;;;;2.47;1.37;;;24.50;35.70;;;;;;5007024;28;20789;-61
2021/05/09 10:56:03;;;;;;;1.40;1.20;;;24.70;37.00;;;;;;5013010;28;20434;-61
2021/05/09 10:58:46;;;;;;;3.97;1.47;;;24.80;37.00;;;;;;5008368;28;20823;-62
2021/05/09 11:01:35;;;;;;;1.30;1.20;;;24.90;37.20;;;;;;5006692;28;20446;-61
2021/05/09 11:04:05;;;;;;;2.80;1.30;;;25.10;36.40;;;;;;5009809;28;20957;-60
2021/05/09 11:06:31;;;;;;;1.13;1.03;;;25.10;33.80;;;;;;5012308;28;20470;-60
2021/05/09 11:09:02;;;;;;;1.00;0.83;;;25.10;34.60;;;;;;5005317;28;20453;-60
2021/05/09 11:11:31;;;;;;;1.10;1.00;;;25.00;35.10;;;;;;5011002;28;20599;-61
2021/05/09 11:14:03;;;;;;;2.07;1.63;;;25.00;35.60;;;;;;5011170;28;20435;-60
2021/05/09 11:16:36;;;;;;;1.63;1.40;;;25.10;34.20;;;;;;5011473;28;20442;-61
2021/05/09 11:19:18;;;;;;;2.47;2.00;;;25.20;35.40;;;;;;5012210;28;20455;-59
2021/05/09 11:21:48;;;;;;;2.20;1.60;;;25.50;36.30;;;;;;5001907;28;20453;-59
2021/05/09 11:24:24;;;;;;;2.80;1.37;;;25.70;33.80;;;;;;5010145;28;20998;-59
2021/05/09 11:26:52;;;;;;;2.00;1.10;;;25.80;32.60;;;;;;5011020;28;20457;-59
2021/05/09 11:29:28;;;;;;;1.40;1.30;;;25.80;30.90;;;;;;5007622;28;20428;-61
2021/05/09 11:31:56;;;;;;;1.73;1.30;;;25.90;30.60;;;;;;5008782;28;20456;-61
2021/05/09 11:34:25;;;;;;;2.30;1.70;;;26.00;29.90;;;;;;5011363;28;21233;-61
2021/05/09 11:36:53;;;;;;;1.50;1.40;;;26.00;30.90;;;;;;5008037;28;20985;-61
2021/05/09 11:39:33;;;;;;;3.33;1.30;;;26.20;31.30;;;;;;5008273;28;20458;-60
2021/05/09 11:41:59;;;;;;;1.43;1.10;;;26.30;31.00;;;;;;5000846;28;20921;-61
2021/05/09 11:44:41;;;;;;;1.40;1.30;;;26.30;30.40;;;;;;5008789;28;20493;-59
2021/05/09 11:47:23;;;;;;;2.77;1.50;;;26.30;31.30;;;;;;5001031;28;20511;-58
2021/05/09 11:50:00;;;;;;;3.43;1.00;;;26.30;31.40;;;;;;5008516;28;20434;-59
2021/05/09 11:52:28;;;;;;;5.20;1.27;;;26.30;32.00;;;;;;5023609;28;20454;-60
2021/05/09 11:54:57;;;;;;;2.67;1.73;;;26.50;31.20;;;;;;5024309;28;20434;-58
2021/05/09 11:57:25;;;;;;;0.93;0.93;;;26.70;31.00;;;;;;5025676;28;20581;-60
2021/05/09 11:59:57;;;;;;;2.30;1.10;;;27.00;32.20;;;;;;5024407;28;20426;-60
2021/05/09 12:02:32;;;;;;;1.83;1.20;;;27.20;32.50;;;;;;5023492;28;20460;-65
2021/05/09 12:05:11;;;;;;;1.60;1.30;;;27.50;30.10;;;;;;5023331;28;20512;-60
2021/05/09 12:07:55;;;;;;;3.67;1.20;;;27.70;31.30;;;;;;5025625;28;20461;-60
2021/05/09 12:10:29;;;;;;;1.23;1.10;;;27.80;28.10;;;;;;5023625;28;20448;-60
2021/05/09 12:13:09;;;;;;;1.33;1.23;;;27.60;28.50;;;;;;5026494;28;20483;-59
2021/05/09 12:15:40;;;;;;;1.30;1.20;;;27.40;29.60;;;;;;5021775;28;20942;-60
2021/05/09 12:18:07;;;;;;;1.07;1.00;;;27.30;30.30;;;;;;5025916;28;20512;-60
2021/05/09 12:20:34;;;;;;;1.20;1.10;;;27.20;30.30;;;;;;5026274;28;20535;-60
2021/05/09 12:23:05;;;;;;;2.30;1.00;;;27.10;26.80;;;;;;5023818;28;20503;-59
2021/05/09 12:25:40;;;;;;;1.50;1.40;;;27.00;27.60;;;;;;5023425;28;20939;-62
2021/05/09 12:28:07;;;;;;;2.43;1.50;;;27.10;28.90;;;;;;5027884;28;20445;-60
2021/05/09 12:30:33;;;;;;;1.33;1.23;;;27.30;28.60;;;;;;5026677;28;20442;-60
2021/05/09 12:32:59;;;;;;;1.10;1.10;;;27.40;28.70;;;;;;5025122;28;20442;-60
2021/05/09 12:35:24;;;;;;;1.23;1.10;;;27.60;29.60;;;;;;5022013;28;20171;-60
2021/05/09 12:37:50;;;;;;;2.13;0.97;;;27.80;29.10;;;;;;5008773;28;20257;-60
2021/05/09 12:40:20;;;;;;;1.10;1.00;;;27.90;29.00;;;;;;5028188;28;20662;-58
2021/05/09 12:42:55;;;;;;;3.00;1.17;;;28.00;29.20;;;;;;5026927;28;20167;-61
2021/05/09 12:45:40;;;;;;;2.33;0.90;;;28.20;29.60;;;;;;5023776;28;20448;-60
2021/05/09 12:48:27;;;;;;;1.23;1.10;;;28.30;29.50;;;;;;5018895;28;20454;-60
2021/05/09 12:51:14;;;;;;;1.50;1.10;;;28.30;29.10;;;;;;5015865;28;20444;-59
2021/05/09 12:53:48;;;;;;;1.33;1.17;;;28.40;29.30;;;;;;5022966;28;20449;-62
2021/05/09 12:56:29;;;;;;;2.97;1.10;;;28.50;29.20;;;;;;5018007;28;20449;-61